Belle Point, Louisiana
Current Conditions -  °F | °C
As of 3:35 AM on Saturday 20 Dec 2014 (Local Time) from K1L0 Reporting Station
Overcast Overcast  
Wind Chill: 51°   Ceiling: 500
Heat Index: 51°   Visibility: 10mi
Dew Point: 48°   Wind: 12mph
Humidity: 91%   Direction: 360°N
Pressure: 30.08"   Gusts: 20mph
Location:  30.0699°N, 90.5574°W
Report Text: K1L0 200935Z AUTO 36010G17KT 10SM OVC005 11/09 A3008 RMK AO2 P0001 T01050091
Loading
Personal Weather Stations






























Interactive Weather Map New forecast layout! Learn more

10-Day Weather Forecast

Advertisements
Track Severe Weather on mobile